Flight Track Log - Related Links

Times and Time Zones

All times are in EDT time to prevent confusion due to time zone crossing. See the SWA1810 flight status page for this flight to view local times or setup timezone preferences in your user account.

Time Position Orientation Groundspeed Altitude Reporting Facility
EDT Latitude Longitude Course Direction KTS MPH feet Rate Location/Type
Wed 07:48:06 AM 29.9761 -90.2539 199° South 154 177 900  Level Houston Center
Wed 07:48:49 AM 29.9536 -90.2631 199° South 172 198 2,000 2,658 Climbing Houston Center
Wed 07:49:25 AM 29.9136 -90.2611 178° South 203 234 4,400 2,852 Climbing Houston Center
Wed 07:49:50 AM 29.9092 -90.2450 108° East 240 276 4,900 1,964 Climbing Houston Center
Wed 07:50:20 AM 29.9306 -90.1981 62° Northeast 291 335 6,200 3,246 Climbing Houston Center
Wed 07:50:51 AM 29.9697 -90.1717 30° Northeast 288 331 8,200 3,161 Climbing Houston Center
Wed 07:51:53 AM 30.0425 -90.1175 33° Northeast 305 351 11,100 2,732 Climbing Houston Center
Wed 07:52:54 AM 30.1300 -90.0581 30° Northeast 355 409 13,800 2,852 Climbing Houston Center
Wed 07:53:55 AM 30.2117 -89.9772 41° Northeast 387 445 16,900 2,852 Climbing Houston Center
Wed 07:54:56 AM 30.2786 -89.8747 53° Northeast 400 460 19,600 2,557 Climbing Houston Center
Wed 07:55:57 AM 30.3444 -89.7756 52° Northeast 409 471 22,100 2,390 Climbing Houston Center
Wed 07:56:59 AM 30.4328 -89.6494 51° Northeast 430 495 24,500 1,902 Climbing Houston Center
Wed 07:58:00 AM 30.5108 -89.5353 52° Northeast 449 517 26,000 1,623 Climbing Houston Center
Wed 07:59:01 AM 30.5886 -89.4122 54° Northeast 470 541 27,800 1,721 Climbing Houston Center
Wed 08:00:02 AM 30.6686 -89.2867 53° Northeast 482 555 29,500 1,561 Climbing Houston Center
Wed 08:01:04 AM 30.7458 -89.1556 56° Northeast 491 565 31,000 1,024 Climbing Houston Center
Wed 08:02:05 AM 30.8272 -89.0239 54° Northeast 498 573 31,600 1,180 Climbing Houston Center
Wed 08:03:06 AM 30.9106 -88.8844 55° Northeast 500 575 33,400 1,475 Climbing Houston Center
Wed 08:04:07 AM 30.9858 -88.7472 57° Northeast 502 578 34,600 787 Climbing Houston Center
Wed 08:05:08 AM 31.0564 -88.6108 59° Northeast 516 594 35,000 829 Climbing Houston Center
Wed 08:06:10 AM 31.1464 -88.4383 59° Northeast 518 596 36,300 1,026 Climbing Houston Center
Wed 08:07:05 AM 31.2178 -88.3142 56° Northeast 515 593 37,000 365 Climbing Atlanta Center
Wed 08:08:05 AM 31.2894 -88.1719 59° Northeast 515 593 37,000  Level Atlanta Center
Wed 08:09:05 AM 31.3631 -88.0269 59° Northeast 515 593 37,000  Level Atlanta Center
Wed 08:10:05 AM 31.4275 -87.9008 59° Northeast 509 586 37,000  Level Atlanta Center
Wed 08:11:05 AM 31.5008 -87.7578 59° Northeast 503 579 37,000  Level Atlanta Center
Wed 08:12:05 AM 31.5736 -87.6194 58° Northeast 503 579 37,000  Level Atlanta Center
Wed 08:13:05 AM 31.6444 -87.4783 59° Northeast 503 579 37,000  Level Atlanta Center
Wed 08:14:05 AM 31.7172 -87.3394 58° Northeast 503 579 37,000  Level Atlanta Center
Wed 08:15:05 AM 31.7900 -87.1833 61° Northeast 495 570 37,000  Level Atlanta Center
Wed 08:16:05 AM 31.8625 -87.0417 59° Northeast 495 570 37,000  Level Atlanta Center
Wed 08:17:05 AM 31.9325 -86.9044 59° Northeast 495 570 37,000  Level Atlanta Center
Wed 08:18:05 AM 32.0025 -86.7597 60° Northeast 495 570 37,000  Level Atlanta Center
Wed 08:19:05 AM 32.0719 -86.6369 56° Northeast 503 579 37,000  Level Atlanta Center
Wed 08:20:05 AM 32.1417 -86.4942 60° Northeast 503 579 37,000  Level Atlanta Center
Wed 08:22:05 AM 32.2889 -86.2181 58° Northeast 503 579 37,000  Level Atlanta Center
Wed 08:23:05 AM 32.3767 -86.0900 51° Northeast 497 572 37,000  Level Atlanta Center
Wed 08:24:05 AM 32.4622 -85.9639 51° Northeast 490 564 37,000  Level Atlanta Center
Wed 08:25:05 AM 32.5497 -85.8353 51° Northeast 488 562 37,000  Level Atlanta Center
Wed 08:26:05 AM 32.6328 -85.7061 53° Northeast 493 567 37,000  Level Atlanta Center
Wed 08:27:05 AM 32.7200 -85.5769 51° Northeast 493 567 37,000  Level Atlanta Center
Wed 08:28:05 AM 32.8053 -85.4500 51° Northeast 493 567 37,000  Level Atlanta Center
Wed 08:29:05 AM 32.8922 -85.3203 51° Northeast 493 567 37,000  Level Atlanta Center
Wed 08:30:05 AM 32.9769 -85.1928 52° Northeast 493 567 37,000  Level Atlanta Center
Wed 08:31:05 AM 33.0572 -85.0700 52° Northeast 479 551 37,000  Level Atlanta Center
Wed 08:32:05 AM 33.1439 -84.9419 51° Northeast 479 551 37,000  Level Atlanta Center
Wed 08:33:05 AM 33.2242 -84.8161 53° Northeast 479 551 37,000  Level Atlanta Center
Wed 08:34:05 AM 33.3061 -84.6875 53° Northeast 485 558 37,000  Level Atlanta Center
Wed 08:35:05 AM 33.3883 -84.5614 52° Northeast 485 558 37,000  Level Atlanta Center
Wed 08:36:05 AM 33.4722 -84.4322 52° Northeast 485 558 37,000  Level Atlanta Center
Wed 08:37:05 AM 33.5539 -84.3056 52° Northeast 485 558 37,000  Level Atlanta Center
Wed 08:38:05 AM 33.6356 -84.1736 53° Northeast 488 562 37,000  Level Atlanta Center
Wed 08:39:05 AM 33.7192 -84.0439 52° Northeast 488 562 37,000  Level Atlanta Center
Wed 08:40:05 AM 33.8025 -83.9139 52° Northeast 488 562 37,000  Level Atlanta Center
Wed 08:41:05 AM 33.8836 -83.7861 53° Northeast 481 554 37,000  Level Atlanta Center
Wed 08:42:05 AM 33.9669 -83.6556 52° Northeast 489 563 37,000  Level Atlanta Center
Wed 08:43:05 AM 34.0539 -83.5172 53° Northeast 484 557 37,000  Level Atlanta Center
Wed 08:44:05 AM 34.1389 -83.3861 52° Northeast 484 557 37,000  Level Atlanta Center
Wed 08:45:05 AM 34.2156 -83.2575 54° Northeast 476 548 37,000  Level Atlanta Center
Wed 08:46:05 AM 34.3000 -83.1286 52° Northeast 481 554 37,000  Level Atlanta Center
Wed 08:47:05 AM 34.3783 -83.0019 53° Northeast 481 554 37,000  Level Atlanta Center
Wed 08:48:05 AM 34.4567 -82.8725 54° Northeast 481 554 37,000  Level Atlanta Center
Wed 08:49:05 AM 34.5367 -82.7453 53° Northeast 481 554 37,000  Level Atlanta Center
Wed 08:50:05 AM 34.6189 -82.6178 52° Northeast 481 554 37,000  Level Atlanta Center
Wed 08:51:05 AM 34.6861 -82.5003 55° Northeast 476 548 37,000  Level Atlanta Center
Wed 08:52:05 AM 34.7658 -82.3700 53° Northeast 476 548 37,000  Level Atlanta Center
Wed 08:53:05 AM 34.8456 -82.2419 53° Northeast 481 554 37,000  Level Atlanta Center
Wed 08:54:05 AM 34.9331 -82.1006 53° Northeast 481 554 37,000  Level Atlanta Center
Wed 08:55:05 AM 35.0042 -81.9822 54° Northeast 481 554 37,000  Level Atlanta Center
Wed 08:56:05 AM 35.0769 -81.8461 57° Northeast 481 554 37,000  Level Atlanta Center
Wed 08:57:05 AM 35.1494 -81.7119 57° Northeast 476 548 37,000  Level Atlanta Center
Wed 08:58:05 AM 35.2200 -81.5753 58° Northeast 476 548 37,000  Level Atlanta Center
Wed 08:59:05 AM 35.2881 -81.4433 58° Northeast 471 542 37,000  Level Atlanta Center
Wed 09:00:05 AM 35.3603 -81.3061 57° Northeast 466 536 37,000  Level Atlanta Center
Wed 09:01:05 AM 35.4281 -81.1689 59° Northeast 461 531 37,000  Level Atlanta Center
Wed 09:02:05 AM 35.5000 -81.0311 57° Northeast 466 536 37,000  Level Atlanta Center
Wed 09:03:05 AM 35.5697 -80.8983 57° Northeast 466 536 37,000  Level Atlanta Center
Wed 09:04:05 AM 35.6411 -80.7653 57° Northeast 466 536 37,000  Level Atlanta Center
Wed 09:05:55 AM 35.7664 -80.5222 58° Northeast 439 505 37,000  Level Washington Center
Wed 09:06:55 AM 35.8369 -80.3833 58° Northeast 470 541 37,000  Level Washington Center
Wed 09:07:55 AM 35.9025 -80.2539 58° Northeast 459 528 37,000  Level Washington Center
Wed 09:08:55 AM 35.9725 -80.1169 58° Northeast 468 539 37,000  Level Washington Center
Wed 09:09:55 AM 36.0467 -79.9722 58° Northeast 460 529 37,000  Level Washington Center
Wed 09:10:55 AM 36.1222 -79.8453 54° Northeast 460 529 37,000  Level Washington Center
Wed 09:11:55 AM 36.1956 -79.7153 55° Northeast 460 529 37,000 -50 Level Washington Center
Wed 09:12:55 AM 36.2689 -79.5825 56° Northeast 460 529 36,900 -500 Descending Washington Center
Wed 09:13:55 AM 36.3353 -79.4675 54° Northeast 456 525 36,000 -950 Descending Washington Center
Wed 09:14:55 AM 36.4083 -79.3342 56° Northeast 462 532 35,000 -500 Descending Washington Center
Wed 09:15:55 AM 36.4814 -79.2033 55° Northeast 467 537 35,000 -400 Level Washington Center
Wed 09:16:55 AM 36.5650 -79.0597 54° Northeast 467 537 34,200 -1,400 Descending Washington Center
Wed 09:17:55 AM 36.6375 -78.9283 55° Northeast 467 537 32,200 -2,550 Descending Washington Center
Wed 09:18:55 AM 36.7100 -78.7917 56° Northeast 460 529 29,100 -1,600 Descending Washington Center
Wed 09:19:55 AM 36.7822 -78.6625 55° Northeast 460 529 29,000 -300 Descending Washington Center
Wed 09:20:55 AM 36.8458 -78.5403 57° Northeast 460 529 28,500 -700 Descending Washington Center
Wed 09:21:55 AM 36.9178 -78.4158 54° Northeast 453 521 27,600 -950 Descending Washington Center
Wed 09:22:55 AM 37.0097 -78.3178 40° Northeast 448 516 26,600 -1,000 Descending Washington Center
Wed 09:23:55 AM 37.1075 -78.2325 35° Northeast 427 491 25,600 -950 Descending Washington Center
Wed 09:24:55 AM 37.1967 -78.1628 32° Northeast 427 491 24,700 -800 Descending Washington Center
Wed 09:25:55 AM 37.3092 -78.0672 34° Northeast 416 479 24,000 -400 Descending Washington Center
Wed 09:26:55 AM 37.4028 -77.9839 35° Northeast 416 479 23,900 -500 Descending Washington Center
Wed 09:27:55 AM 37.4981 -77.9033 34° Northeast 411 473 23,000 -450 Descending Washington Center
Wed 09:28:55 AM 37.5914 -77.8247 34° Northeast 404 465 23,000  Level Washington Center
Wed 09:29:55 AM 37.6847 -77.7436 35° Northeast 404 465 23,000  Level Washington Center
Wed 09:30:55 AM 37.7694 -77.6725 34° Northeast 404 465 23,000  Level Washington Center
Wed 09:31:55 AM 37.8647 -77.5883 35° Northeast 404 465 23,000 -350 Level Washington Center
Wed 09:32:55 AM 37.9578 -77.5039 36° Northeast 404 465 22,300 -850 Descending Washington Center
Wed 09:33:55 AM 38.0506 -77.4322 31° Northeast 404 465 21,300 -1,000 Descending Washington Center
Wed 09:34:55 AM 38.1417 -77.3500 35° Northeast 399 459 20,300 -1,400 Descending Washington Center
Wed 09:35:55 AM 38.2303 -77.2728 34° Northeast 399 459 18,500 -1,900 Descending Washington Center
Wed 09:36:55 AM 38.3147 -77.1981 35° Northeast 382 440 16,500 -1,750 Descending Washington Center
Wed 09:37:55 AM 38.3969 -77.1203 37° Northeast 374 430 15,000 -1,700 Descending Washington Center
Wed 09:38:55 AM 38.4689 -77.0317 44° Northeast 362 417 13,100 -1,550 Descending Washington Center
Wed 09:39:55 AM 38.5389 -76.9481 43° Northeast 350 403 11,900 -1,400 Descending Washington Center
Wed 09:40:55 AM 38.6147 -76.8564 43° Northeast 338 389 10,300 -1,200 Descending Washington Center
Wed 09:41:55 AM 38.6761 -76.7831 43° Northeast 317 365 9,500 -1,000 Descending Washington Center
Wed 09:42:55 AM 38.7228 -76.6986 55° Northeast 303 349 8,300 -1,145 Descending Washington Center
Wed 09:43:45 AM 38.7667 -76.6167 55° Northeast 284 327 7,400 -1,200 Descending Potomac TRACON
Wed 09:44:45 AM 38.8000 -76.5333 63° Northeast 284 327 6,100 -1,150 Descending Potomac TRACON
Wed 09:45:45 AM 38.8667 -76.5500 349° North 261 300 5,100 -900 Descending Potomac TRACON
Wed 09:46:45 AM 38.9333 -76.5833 339° North 260 299 4,300 -550 Descending Potomac TRACON
Wed 09:47:45 AM 38.9833 -76.6333 322° Northwest 239 275 4,000 -158 Descending Potomac TRACON
Wed 09:48:39 AM 39.0167 -76.7000 303° West 231 266 4,000  Level Potomac TRACON
Wed 09:49:39 AM 39.0500 -76.7667 303° West 234 269 4,000 -300 Level Potomac TRACON
Wed 09:50:39 AM 39.1000 -76.8167 322° Northwest 233 268 3,400 -950 Descending Potomac TRACON
Wed 09:51:39 AM 39.1667 -76.8500 339° North 228 262 2,100 -950 Descending Potomac TRACON
Wed 09:52:39 AM 39.1833 -76.7833 72° East 234 269 1,500 -550 Descending Potomac TRACON
Wed 09:53:39 AM 39.1833 -76.7167 90° East 167 192 1,000 645 Descending Potomac TRACON
Wed 09:54:40 AM 39.1667 -76.6500 108° East 227 261 2,800 992 Climbing Potomac TRACON
Wed 09:55:40 AM 39.1500 -76.5667 104° East 242 278 3,000 100 Climbing Potomac TRACON
Wed 09:56:40 AM 39.1167 -76.6333 237° Southwest 211 243 3,000 -300 Level Potomac TRACON
Wed 09:57:40 AM 39.1000 -76.7000 252° West 204 235 2,400 -500 Descending Potomac TRACON
Wed 09:58:40 AM 39.1167 -76.7667 288° West 185 213 2,000 -200 Descending Potomac TRACON
Wed 09:59:40 AM 39.1167 -76.8333 270° West 176 203 2,000  Level Potomac TRACON

Login

Don't have an account? Register now (free) for customized features, flight alerts, and more!